createdAt,value
2023-02-08T00:01:59.452Z,-1.55
2023-02-08T00:06:51.125Z,-1.75
2023-02-08T00:11:42.896Z,-2.07
2023-02-08T00:16:34.941Z,-2.21
2023-02-08T00:21:26.614Z,-1.88
2023-02-08T00:26:19.889Z,-1.86
2023-02-08T00:31:11.652Z,-2.08
2023-02-08T00:36:08.046Z,-1.98
2023-02-08T00:40:59.805Z,-1.87
2023-02-08T00:46:00.955Z,-2.01
2023-02-08T00:51:05.120Z,-1.98
2023-02-08T00:55:57.146Z,-2.06
2023-02-08T01:00:53.124Z,-2.11
2023-02-08T01:05:44.846Z,-2.10
2023-02-08T01:10:36.533Z,-2.23
2023-02-08T01:15:28.232Z,-2.20
2023-02-08T01:20:20.204Z,-2.38
2023-02-08T01:25:11.896Z,-2.32
2023-02-08T01:30:05.178Z,-2.26
2023-02-08T01:34:56.844Z,-2.29
2023-02-08T01:39:48.531Z,-2.34
2023-02-08T01:45:21.053Z,-2.17
2023-02-08T01:50:17.806Z,-2.15
2023-02-08T01:55:20.374Z,-2.21
2023-02-08T02:00:22.213Z,-2.17
2023-02-08T02:05:16.215Z,-2.27
2023-02-08T02:10:14.274Z,-2.32
2023-02-08T02:15:08.060Z,-2.28
2023-02-08T02:20:23.753Z,-2.43
2023-02-08T02:25:42.538Z,-2.35
2023-02-08T02:30:53.119Z,-2.44
2023-02-08T02:36:03.003Z,-2.53
2023-02-08T02:41:05.818Z,-2.63
2023-02-08T02:46:25.265Z,-2.66
2023-02-08T02:51:44.192Z,-2.62
2023-02-08T02:56:43.036Z,-2.54
2023-02-08T03:01:36.100Z,-2.51
2023-02-08T03:06:59.913Z,-2.63
2023-02-08T03:12:22.487Z,-2.69
2023-02-08T03:17:59.986Z,-2.67
2023-02-08T03:23:24.294Z,-2.65
2023-02-08T03:28:39.575Z,-2.62
2023-02-08T03:34:02.636Z,-2.68
2023-02-08T03:38:56.068Z,-2.67
2023-02-08T03:44:05.485Z,-2.64
2023-02-08T03:49:08.415Z,-2.67
2023-02-08T03:54:06.517Z,-2.67
2023-02-08T03:59:09.193Z,-2.72
2023-02-08T04:04:01.560Z,-2.75
2023-02-08T04:08:53.492Z,-2.75
2023-02-08T04:13:45.287Z,-2.73
2023-02-08T04:18:36.953Z,-2.77
2023-02-08T04:23:28.610Z,-2.80
2023-02-08T04:28:20.321Z,-2.83
2023-02-08T04:33:14.698Z,-2.91
2023-02-08T04:38:06.381Z,-2.89
2023-02-08T04:42:58.052Z,-2.88
2023-02-08T04:47:49.715Z,-2.81
2023-02-08T04:52:41.380Z,-2.65
2023-02-08T04:57:33.052Z,-2.70
2023-02-08T05:02:26.576Z,-2.95
2023-02-08T05:07:19.116Z,-3.09
2023-02-08T05:12:10.849Z,-3.33
2023-02-08T05:17:02.720Z,-3.46
2023-02-08T05:21:54.735Z,-3.54
2023-02-08T05:26:47.220Z,-3.53
2023-02-08T05:31:39.478Z,-3.44
2023-02-08T05:36:32.595Z,-3.43
2023-02-08T05:41:24.958Z,-3.32
2023-02-08T05:46:17.015Z,-3.35
2023-02-08T05:51:09.628Z,-3.32
2023-02-08T05:56:01.567Z,-3.35
2023-02-08T06:00:54.568Z,-3.09
2023-02-08T06:05:47.094Z,-3.20
2023-02-08T06:15:45.944Z,-3.37
2023-02-08T06:20:43.011Z,-3.37
2023-02-08T06:25:37.224Z,-3.38
2023-02-08T06:35:39.073Z,-3.32
2023-02-08T06:40:33.209Z,-3.12
2023-02-08T06:45:25.060Z,-3.28
2023-02-08T06:50:17.370Z,-3.22
2023-02-08T07:00:16.866Z,-3.31
2023-02-08T07:05:11.081Z,-3.03
2023-02-08T07:10:05.218Z,-3.16
2023-02-08T07:14:58.089Z,-3.12
2023-02-08T07:24:57.734Z,-2.92
2023-02-08T07:34:56.086Z,-2.83
2023-02-08T07:39:50.141Z,-2.96
2023-02-08T07:44:43.277Z,-2.99
2023-02-08T07:49:35.384Z,-2.78
2023-02-08T07:54:27.876Z,-2.65
2023-02-08T07:59:19.897Z,-2.51
2023-02-08T08:04:13.033Z,-2.47
2023-02-08T08:09:06.078Z,-2.63
2023-02-08T08:24:10.958Z,-2.35
2023-02-08T08:29:03.118Z,-2.31
2023-02-08T08:33:56.621Z,-2.25
2023-02-08T08:38:49.091Z,-2.25
2023-02-08T08:43:43.500Z,-2.06
2023-02-08T09:14:41.699Z,-1.36
2023-02-08T09:24:40.177Z,-0.93
2023-02-08T09:39:52.044Z,-0.78
2023-02-08T09:56:14.785Z,-0.38
2023-02-08T10:17:58.154Z,0.51
2023-02-08T11:17:36.497Z,0.91
2023-02-08T11:48:59.593Z,1.99
2023-02-08T12:55:56.300Z,2.57
2023-02-08T13:00:56.199Z,2.86
2023-02-08T13:06:02.200Z,3.08
2023-02-08T13:11:21.178Z,3.21
2023-02-08T13:16:39.373Z,3.18
2023-02-08T13:32:09.743Z,3.18
2023-02-08T13:37:25.188Z,3.24
2023-02-08T13:42:36.417Z,3.33
2023-02-08T13:47:44.091Z,2.99
2023-02-08T13:52:49.536Z,3.24
2023-02-08T14:24:50.471Z,3.41
2023-02-08T14:29:44.687Z,3.30
2023-02-08T14:50:41.188Z,3.47
2023-02-08T14:55:49.497Z,3.40
2023-02-08T15:06:17.567Z,3.25
2023-02-08T16:08:44.527Z,2.03
2023-02-08T16:34:48.541Z,1.17
2023-02-08T16:45:09.328Z,0.83
2023-02-08T16:50:03.147Z,0.66
2023-02-08T17:00:04.301Z,0.39
2023-02-08T17:15:09.296Z,0.43
2023-02-08T17:20:02.733Z,0.47
2023-02-08T17:30:01.330Z,0.58
2023-02-08T17:34:53.720Z,0.59
2023-02-08T17:39:46.582Z,0.63
2023-02-08T17:49:45.901Z,0.49
2023-02-08T17:54:38.706Z,0.38
2023-02-08T18:04:37.381Z,-0.27
2023-02-08T18:09:32.893Z,-0.49
2023-02-08T18:14:24.790Z,-0.64
2023-02-08T18:19:17.284Z,-0.79
2023-02-08T18:24:10.728Z,-0.82
2023-02-08T18:29:03.875Z,-0.90
2023-02-08T18:33:57.656Z,-0.94
2023-02-08T18:44:00.145Z,-1.03
2023-02-08T18:48:54.397Z,-1.07
2023-02-08T18:53:51.678Z,-1.10
2023-02-08T18:58:45.030Z,-1.05
2023-02-08T19:03:40.395Z,-1.03
2023-02-08T19:08:33.096Z,-1.02
2023-02-08T19:13:30.384Z,-0.77
2023-02-08T19:18:22.773Z,-0.73
2023-02-08T19:23:18.510Z,-0.62
2023-02-08T19:28:10.701Z,-0.64
2023-02-08T19:33:03.391Z,-0.43
2023-02-08T19:37:55.210Z,-0.57
2023-02-08T19:42:48.205Z,-0.61
2023-02-08T19:47:50.995Z,-0.61
2023-02-08T19:52:43.526Z,-0.73
2023-02-08T19:57:40.277Z,-0.62
2023-02-08T20:02:32.934Z,-0.79
2023-02-08T20:07:26.519Z,-0.72
2023-02-08T20:12:19.729Z,-0.66
2023-02-08T20:17:11.870Z,-0.75
2023-02-08T20:22:11.809Z,-0.78
2023-02-08T20:27:03.975Z,-0.90
2023-02-08T20:31:57.789Z,-0.98
2023-02-08T20:37:05.695Z,-1.06
2023-02-08T20:42:02.696Z,-1.04
2023-02-08T20:46:54.613Z,-1.02
2023-02-08T20:51:46.858Z,-1.11
2023-02-08T20:56:40.362Z,-1.18
2023-02-08T21:01:35.111Z,-1.25
2023-02-08T21:06:31.713Z,-1.20
2023-02-08T21:11:28.715Z,-1.36
2023-02-08T21:16:22.414Z,-1.51
2023-02-08T21:21:15.569Z,-1.63
2023-02-08T21:26:08.861Z,-1.84
2023-02-08T21:31:12.843Z,-2.03
2023-02-08T21:36:10.368Z,-2.18
2023-02-08T21:41:16.682Z,-2.22
2023-02-08T21:46:13.408Z,-2.30
2023-02-08T21:51:24.045Z,-2.43
2023-02-08T21:56:15.878Z,-2.49
2023-02-08T22:01:09.039Z,-2.52
2023-02-08T22:06:01.649Z,-2.49
2023-02-08T22:10:58.308Z,-2.50
2023-02-08T22:15:50.835Z,-2.55
2023-02-08T22:20:47.334Z,-2.60
2023-02-08T22:25:39.318Z,-2.61
2023-02-08T22:30:32.322Z,-2.67
2023-02-08T22:35:28.056Z,-2.74
2023-02-08T22:40:20.342Z,-2.77
2023-02-08T22:45:12.577Z,-2.82
2023-02-08T22:50:06.342Z,-2.88
2023-02-08T22:55:02.995Z,-2.95
2023-02-08T22:59:55.391Z,-3.03
2023-02-08T23:04:47.503Z,-3.08
2023-02-08T23:09:39.457Z,-3.13
2023-02-08T23:14:31.374Z,-3.15
2023-02-08T23:19:41.065Z,-3.17
2023-02-08T23:24:33.207Z,-3.22
2023-02-08T23:29:26.077Z,-3.19
2023-02-08T23:34:18.479Z,-3.15
2023-02-08T23:39:13.700Z,-3.16
2023-02-08T23:44:06.447Z,-3.22
2023-02-08T23:48:58.688Z,-3.18
2023-02-08T23:53:52.653Z,-3.17
2023-02-08T23:58:51.702Z,-3.22
